createdAt,value
2023-01-09T00:01:31.385Z,99591.91
2023-01-09T00:03:59.171Z,99587.53
2023-01-09T00:06:27.326Z,99587.34
2023-01-09T00:08:55.172Z,99590.03
2023-01-09T00:11:23.265Z,99578.81
2023-01-09T00:13:50.946Z,99566.50
2023-01-09T00:16:19.555Z,99552.97
2023-01-09T00:18:47.216Z,99567.47
2023-01-09T00:21:15.648Z,99564.31
2023-01-09T00:23:43.340Z,99559.00
2023-01-09T00:26:14.428Z,99560.81
2023-01-09T00:28:42.094Z,99551.22
2023-01-09T00:31:10.845Z,99551.22
2023-01-09T00:34:06.884Z,99555.00
2023-01-09T00:36:34.990Z,99550.63
2023-01-09T00:39:02.771Z,99560.03
2023-01-09T00:41:40.087Z,99569.50
2023-01-09T00:44:22.288Z,99566.13
2023-01-09T00:46:55.552Z,99571.31
2023-01-09T00:49:23.599Z,99569.66
2023-01-09T00:51:52.222Z,99559.28
2023-01-09T00:54:20.423Z,99563.38
2023-01-09T00:56:49.226Z,99542.72
2023-01-09T00:59:16.905Z,99560.19
2023-01-09T01:01:44.884Z,99566.91
2023-01-09T01:04:31.148Z,99546.16
2023-01-09T01:07:22.322Z,99529.88
2023-01-09T01:09:50.040Z,99524.63
2023-01-09T01:12:18.015Z,99525.56
2023-01-09T01:14:45.598Z,99539.31
2023-01-09T01:17:13.478Z,99538.41
2023-01-09T01:19:41.163Z,99541.03
2023-01-09T01:22:09.196Z,99537.75
2023-01-09T01:24:36.870Z,99538.38
2023-01-09T01:27:04.877Z,99530.50
2023-01-09T01:29:32.587Z,99524.56
2023-01-09T01:32:00.506Z,99511.47
2023-01-09T01:34:29.907Z,99504.59
2023-01-09T01:36:57.797Z,99494.19
2023-01-09T01:39:25.442Z,99501.25
2023-01-09T01:41:53.377Z,99491.66
2023-01-09T01:44:59.672Z,99495.75
2023-01-09T01:47:49.330Z,99488.78
2023-01-09T01:50:35.329Z,99487.94
2023-01-09T01:53:12.001Z,99481.19
2023-01-09T01:55:47.064Z,99482.03
2023-01-09T01:58:15.910Z,99491.44
2023-01-09T02:00:46.774Z,99496.00
2023-01-09T02:03:19.595Z,99489.81
2023-01-09T02:05:47.391Z,99498.66
2023-01-09T02:08:15.877Z,99502.00
2023-01-09T02:10:44.893Z,99495.00
2023-01-09T02:13:13.806Z,99493.25
2023-01-09T02:16:18.373Z,99489.75
2023-01-09T02:18:54.157Z,99494.19
2023-01-09T02:21:39.351Z,99500.03
2023-01-09T02:24:23.872Z,99498.25
2023-01-09T02:26:57.486Z,99501.88
2023-01-09T02:29:45.091Z,99488.88
2023-01-09T02:32:24.932Z,99487.22
2023-01-09T02:35:11.866Z,99487.72
2023-01-09T02:38:09.730Z,99491.53
2023-01-09T02:40:52.543Z,99489.69
2023-01-09T02:43:20.864Z,99482.78
2023-01-09T02:45:48.867Z,99485.34
2023-01-09T02:48:16.558Z,99480.97
2023-01-09T02:51:08.045Z,99479.06
2023-01-09T02:54:02.542Z,99481.03
2023-01-09T02:56:54.959Z,99487.47
2023-01-09T02:59:34.535Z,99486.91
2023-01-09T03:02:16.965Z,99487.94
2023-01-09T03:04:59.390Z,99489.19
2023-01-09T03:07:45.379Z,99481.78
2023-01-09T03:10:32.952Z,99475.66
2023-01-09T03:13:03.284Z,99470.38
2023-01-09T03:15:35.197Z,99455.91
2023-01-09T03:18:06.186Z,99468.41
2023-01-09T03:20:34.747Z,99451.38
2023-01-09T03:23:04.838Z,99461.63
2023-01-09T03:25:33.155Z,99459.75
2023-01-09T03:28:03.601Z,99451.19
2023-01-09T03:30:32.933Z,99444.88
2023-01-09T03:33:00.907Z,99445.88
2023-01-09T03:35:28.810Z,99446.41
2023-01-09T03:37:56.734Z,99437.78
2023-01-09T03:40:24.410Z,99443.47
2023-01-09T03:42:52.354Z,99439.16
2023-01-09T03:45:20.153Z,99427.00
2023-01-09T03:47:48.223Z,99429.59
2023-01-09T03:50:16.059Z,99420.97
2023-01-09T03:52:43.996Z,99427.16
2023-01-09T03:55:11.941Z,99414.88
2023-01-09T03:57:39.869Z,99412.44
2023-01-09T04:00:08.580Z,99406.72
2023-01-09T04:02:45.403Z,99390.53
2023-01-09T04:05:13.799Z,99397.44
2023-01-09T04:07:41.772Z,99392.31
2023-01-09T04:10:11.648Z,99388.84
2023-01-09T04:12:39.872Z,99388.56
2023-01-09T04:15:07.941Z,99394.63
2023-01-09T04:17:35.836Z,99400.84
2023-01-09T04:20:04.004Z,99397.50
2023-01-09T04:22:32.090Z,99408.75
2023-01-09T04:24:59.767Z,99400.91
2023-01-09T04:27:27.687Z,99405.22
2023-01-09T04:29:55.333Z,99402.75
2023-01-09T04:32:23.272Z,99413.03
2023-01-09T04:34:50.891Z,99410.84
2023-01-09T04:37:18.822Z,99406.56
2023-01-09T04:39:46.540Z,99393.59
2023-01-09T04:42:14.516Z,99398.09
2023-01-09T04:44:42.298Z,99393.88
2023-01-09T04:47:10.277Z,99388.56
2023-01-09T04:49:37.957Z,99391.84
2023-01-09T04:52:06.393Z,99387.69
2023-01-09T04:54:34.601Z,99390.28
2023-01-09T04:57:02.535Z,99390.47
2023-01-09T04:59:30.188Z,99380.75
2023-01-09T05:01:59.451Z,99379.63
2023-01-09T05:04:27.322Z,99381.16
2023-01-09T05:06:55.368Z,99378.78
2023-01-09T05:09:23.146Z,99377.16
2023-01-09T05:11:51.202Z,99374.19
2023-01-09T05:14:19.159Z,99367.31
2023-01-09T05:16:47.159Z,99362.34
2023-01-09T05:19:15.073Z,99356.13
2023-01-09T05:21:43.006Z,99361.16
2023-01-09T05:24:10.583Z,99356.88
2023-01-09T05:26:38.520Z,99350.22
2023-01-09T05:29:06.121Z,99349.50
2023-01-09T05:31:34.107Z,99344.88
2023-01-09T05:34:01.959Z,99350.00
2023-01-09T05:36:30.004Z,99344.81
2023-01-09T05:39:02.620Z,99347.84
2023-01-09T05:41:30.664Z,99341.88
2023-01-09T05:43:58.487Z,99338.25
2023-01-09T05:46:26.380Z,99334.72
2023-01-09T05:48:54.039Z,99332.44
2023-01-09T05:51:22.181Z,99324.69
2023-01-09T05:53:50.305Z,99319.56
2023-01-09T05:56:18.370Z,99323.63
2023-01-09T05:58:46.018Z,99327.25
2023-01-09T06:01:13.938Z,99319.31
2023-01-09T06:03:41.687Z,99312.53
2023-01-09T06:06:09.609Z,99319.22
2023-01-09T06:08:37.235Z,99331.34
2023-01-09T06:11:05.213Z,99324.31
2023-01-09T06:13:32.959Z,99323.69
2023-01-09T06:16:00.887Z,99325.78
2023-01-09T06:18:28.512Z,99320.69
2023-01-09T06:20:56.434Z,99324.13
2023-01-09T06:23:24.116Z,99321.91
2023-01-09T06:25:51.975Z,99320.28
2023-01-09T06:28:19.647Z,99317.28
2023-01-09T06:30:52.337Z,99316.47
2023-01-09T06:33:20.592Z,99316.84
2023-01-09T06:35:48.482Z,99324.78
2023-01-09T06:38:16.150Z,99325.16
2023-01-09T06:40:44.094Z,99327.91
2023-01-09T06:43:11.720Z,99337.59
2023-01-09T06:45:39.711Z,99338.16
2023-01-09T06:48:07.488Z,99337.47
2023-01-09T06:50:35.587Z,99336.50
2023-01-09T06:53:03.819Z,99325.06
2023-01-09T06:55:31.710Z,99320.69
2023-01-09T06:57:59.315Z,99315.19
2023-01-09T07:00:27.366Z,99307.75
2023-01-09T07:02:54.997Z,99314.50
2023-01-09T07:05:23.272Z,99305.84
2023-01-09T07:07:51.454Z,99298.81
2023-01-09T07:10:19.592Z,99297.00
2023-01-09T07:12:47.344Z,99295.41
2023-01-09T07:15:15.344Z,99301.38
2023-01-09T07:17:43.021Z,99301.72
2023-01-09T07:20:11.480Z,99298.03
2023-01-09T07:22:39.209Z,99296.56
2023-01-09T07:25:07.514Z,99303.19
2023-01-09T07:27:35.259Z,99309.84
2023-01-09T07:30:04.102Z,99316.81
2023-01-09T07:32:32.581Z,99314.88
2023-01-09T07:35:00.508Z,99304.38
2023-01-09T07:37:28.218Z,99308.16
2023-01-09T07:39:56.172Z,99300.13
2023-01-09T07:42:23.786Z,99292.38
2023-01-09T07:44:51.773Z,99290.66
2023-01-09T07:47:19.382Z,99287.13
2023-01-09T07:49:47.337Z,99300.06
2023-01-09T07:52:15.172Z,99298.72
2023-01-09T07:54:43.158Z,99291.91
2023-01-09T07:57:10.768Z,99293.16
2023-01-09T07:59:38.646Z,99293.47
2023-01-09T08:02:07.268Z,99280.25
2023-01-09T08:04:35.272Z,99282.41
2023-01-09T08:07:03.423Z,99285.16
2023-01-09T08:09:31.424Z,99282.31
2023-01-09T08:11:59.076Z,99271.94
2023-01-09T08:14:27.026Z,99273.84
2023-01-09T08:16:54.619Z,99268.09
2023-01-09T08:19:22.691Z,99280.16
2023-01-09T08:21:50.748Z,99273.72
2023-01-09T08:24:18.775Z,99271.38
2023-01-09T08:26:46.626Z,99270.34
2023-01-09T08:29:14.727Z,99278.22
2023-01-09T08:31:42.557Z,99274.88
2023-01-09T08:34:10.511Z,99259.16
2023-01-09T08:36:38.115Z,99267.47
2023-01-09T08:39:06.082Z,99263.25
2023-01-09T08:41:52.361Z,99258.56
2023-01-09T08:44:38.861Z,99267.06
2023-01-09T08:47:06.749Z,99263.78
2023-01-09T08:49:39.013Z,99256.88
2023-01-09T08:52:07.823Z,99261.38
2023-01-09T08:54:38.966Z,99262.59
2023-01-09T08:57:07.819Z,99263.34
2023-01-09T08:59:36.888Z,99265.09
2023-01-09T09:02:04.651Z,99272.91
2023-01-09T09:04:32.558Z,99267.19
2023-01-09T09:07:00.237Z,99266.28
2023-01-09T09:09:28.147Z,99261.25
2023-01-09T09:11:55.889Z,99264.72
2023-01-09T09:14:42.547Z,99262.84
2023-01-09T09:17:10.285Z,99264.91
2023-01-09T09:19:39.611Z,99260.03
2023-01-09T09:22:07.327Z,99255.69
2023-01-09T09:24:35.201Z,99242.53
2023-01-09T09:27:03.317Z,99235.97
2023-01-09T09:29:31.187Z,99235.25
2023-01-09T09:32:00.827Z,99220.94
2023-01-09T09:34:28.964Z,99216.06
2023-01-09T09:36:56.619Z,99212.47
2023-01-09T09:39:24.559Z,99229.63
2023-01-09T09:42:22.526Z,99232.09
2023-01-09T09:45:03.456Z,99228.38
2023-01-09T09:47:43.571Z,99223.50
2023-01-09T09:50:17.641Z,99230.78
2023-01-09T09:53:08.471Z,99221.50
2023-01-09T09:55:40.187Z,99226.78
2023-01-09T09:58:32.082Z,99207.00
2023-01-09T10:01:01.552Z,99215.53
2023-01-09T10:03:50.362Z,99202.47
2023-01-09T10:06:38.270Z,99204.00
2023-01-09T10:09:57.611Z,99195.66
2023-01-09T10:12:29.610Z,99195.34
2023-01-09T10:15:17.856Z,99196.19
2023-01-09T10:18:10.095Z,99201.19
2023-01-09T10:20:53.035Z,99205.00
2023-01-09T10:23:49.735Z,99201.41
2023-01-09T10:26:41.864Z,99199.81
2023-01-09T10:29:47.953Z,99195.06
2023-01-09T10:32:37.606Z,99194.84
2023-01-09T10:35:48.143Z,99206.06
2023-01-09T10:38:33.884Z,99204.50
2023-01-09T10:41:20.946Z,99199.28
2023-01-09T10:44:15.369Z,99184.91
2023-01-09T10:46:54.402Z,99177.16
2023-01-09T10:49:24.220Z,99179.06
2023-01-09T10:52:05.429Z,99176.63
2023-01-09T10:54:33.174Z,99171.44
2023-01-09T10:57:14.608Z,99172.59
2023-01-09T10:59:43.029Z,99166.56
2023-01-09T11:02:33.513Z,99175.19
2023-01-09T11:05:01.482Z,99171.53
2023-01-09T11:07:39.421Z,99171.16
2023-01-09T11:10:11.838Z,99167.41
2023-01-09T11:12:40.431Z,99156.38
2023-01-09T11:15:19.465Z,99156.63
2023-01-09T11:17:50.513Z,99149.16
2023-01-09T11:20:36.523Z,99142.38
2023-01-09T11:23:04.615Z,99139.69
2023-01-09T11:25:32.257Z,99149.06
2023-01-09T11:28:02.955Z,99135.97
2023-01-09T11:30:34.106Z,99136.75
2023-01-09T11:33:13.783Z,99125.34
2023-01-09T11:35:56.165Z,99119.13
2023-01-09T11:38:24.230Z,99112.56
2023-01-09T11:41:04.210Z,99125.66
2023-01-09T11:43:44.962Z,99109.19
2023-01-09T11:46:41.929Z,99103.81
2023-01-09T11:49:25.060Z,99100.59
2023-01-09T11:52:20.588Z,99102.28
2023-01-09T11:54:59.930Z,99102.19
2023-01-09T11:57:28.025Z,99091.78
2023-01-09T12:00:06.027Z,99092.81
2023-01-09T12:03:14.693Z,99090.53
2023-01-09T12:05:42.693Z,99084.69
2023-01-09T12:08:28.805Z,99073.50
2023-01-09T12:11:10.825Z,99079.38
2023-01-09T12:14:06.059Z,99066.72
2023-01-09T12:16:58.791Z,99069.09
2023-01-09T12:20:01.224Z,99065.59
2023-01-09T12:22:44.451Z,99063.88
2023-01-09T12:25:22.011Z,99062.41
2023-01-09T12:28:03.261Z,99065.59
2023-01-09T12:30:52.130Z,99060.50
2023-01-09T12:33:44.786Z,99055.31
2023-01-09T12:36:27.806Z,99049.59
2023-01-09T12:39:08.165Z,99055.31
2023-01-09T12:41:44.858Z,99063.66
2023-01-09T12:44:50.355Z,99070.19
2023-01-09T12:47:36.865Z,99069.47
2023-01-09T12:50:23.249Z,99070.19
2023-01-09T12:53:06.839Z,99075.38
2023-01-09T12:55:40.601Z,99073.47
2023-01-09T12:59:05.426Z,99069.59
2023-01-09T13:01:46.631Z,99064.56
2023-01-09T13:04:30.630Z,99061.06
2023-01-09T13:07:00.711Z,99056.84
2023-01-09T13:09:45.872Z,99065.84
2023-01-09T13:12:21.698Z,99065.06
2023-01-09T13:15:00.778Z,99061.38
2023-01-09T13:17:32.011Z,99058.25
2023-01-09T13:19:59.650Z,99064.81
2023-01-09T13:22:29.818Z,99052.44
2023-01-09T13:25:20.012Z,99053.91
2023-01-09T13:27:58.489Z,99059.44
2023-01-09T13:30:52.309Z,99052.44
2023-01-09T13:33:23.691Z,99045.38
2023-01-09T13:35:54.024Z,99045.72
2023-01-09T13:38:28.535Z,99045.31
2023-01-09T13:41:32.839Z,99028.63
2023-01-09T13:44:24.347Z,99036.84
2023-01-09T13:46:59.224Z,99035.81
2023-01-09T13:49:40.297Z,99035.94
2023-01-09T13:52:33.018Z,99032.72
2023-01-09T13:55:04.096Z,99033.34
2023-01-09T13:57:38.404Z,99034.00
2023-01-09T14:00:15.420Z,99027.00
2023-01-09T14:02:44.932Z,99034.78
2023-01-09T14:05:12.928Z,99037.63
2023-01-09T14:07:42.533Z,99030.25
2023-01-09T14:10:34.621Z,99024.69
2023-01-09T14:13:12.605Z,99022.56
2023-01-09T14:15:44.915Z,99018.69
2023-01-09T14:18:34.769Z,99029.13
2023-01-09T14:24:04.479Z,99026.31
2023-01-09T14:26:46.094Z,99027.09
2023-01-09T14:29:40.236Z,99029.59
2023-01-09T14:32:23.327Z,99021.25
2023-01-09T14:35:08.780Z,99018.72
2023-01-09T14:37:40.078Z,99017.03
2023-01-09T14:40:19.385Z,99021.13
2023-01-09T14:42:51.875Z,99023.72
2023-01-09T14:45:23.512Z,99021.91
2023-01-09T14:48:11.222Z,99015.22
2023-01-09T14:50:45.152Z,99032.38
2023-01-09T14:53:18.364Z,99023.78
2023-01-09T14:55:57.947Z,99035.09
2023-01-09T14:58:37.890Z,99024.47
2023-01-09T15:01:18.913Z,99036.38
2023-01-09T15:03:51.534Z,99036.50
2023-01-09T15:06:25.559Z,99037.81
2023-01-09T15:09:08.438Z,99036.41
2023-01-09T15:11:39.938Z,99037.31
2023-01-09T15:14:14.100Z,99031.16
2023-01-09T15:16:45.801Z,99034.06
2023-01-09T15:19:15.351Z,99028.88
2023-01-09T15:22:04.679Z,99037.31
2023-01-09T15:24:34.619Z,99044.59
2023-01-09T15:27:13.074Z,99042.91
2023-01-09T15:29:41.647Z,99048.78
2023-01-09T15:32:24.911Z,99049.69
2023-01-09T15:34:54.786Z,99057.16
2023-01-09T15:37:30.467Z,99059.69
2023-01-09T15:40:01.708Z,99049.28
2023-01-09T15:42:52.542Z,99049.28
2023-01-09T15:45:34.053Z,99057.94
2023-01-09T15:48:20.612Z,99047.59
2023-01-09T15:50:51.128Z,99048.06
2023-01-09T15:53:21.508Z,99058.59
2023-01-09T15:56:20.307Z,99063.94
2023-01-09T15:58:50.110Z,99050.19
2023-01-09T16:01:18.066Z,99054.38
2023-01-09T16:03:45.866Z,99052.56
2023-01-09T16:06:28.989Z,99046.38
2023-01-09T16:08:59.330Z,99047.34
2023-01-09T16:11:33.243Z,99055.69
2023-01-09T16:14:16.502Z,99052.13
2023-01-09T16:16:46.133Z,99052.75
2023-01-09T16:19:49.996Z,99061.03
2023-01-09T16:22:29.835Z,99052.78
2023-01-09T16:25:02.544Z,99061.88
2023-01-09T16:27:33.539Z,99053.88
2023-01-09T16:30:03.300Z,99052.06
2023-01-09T16:32:31.479Z,99061.63
2023-01-09T16:35:06.436Z,99064.28
2023-01-09T16:37:36.040Z,99063.19
2023-01-09T16:40:12.664Z,99065.50
2023-01-09T16:42:59.666Z,99074.03
2023-01-09T16:45:28.762Z,99070.66
2023-01-09T16:47:58.110Z,99073.13
2023-01-09T16:50:26.392Z,99069.56
2023-01-09T16:52:55.833Z,99082.81
2023-01-09T16:55:23.636Z,99080.81
2023-01-09T16:57:51.887Z,99081.41
2023-01-09T17:00:21.247Z,99082.56
2023-01-09T17:02:49.286Z,99094.13
2023-01-09T17:05:17.118Z,99097.81
2023-01-09T17:07:45.102Z,99094.91
2023-01-09T17:10:22.891Z,99092.72
2023-01-09T17:12:50.892Z,99095.16
2023-01-09T17:15:18.686Z,99095.50
2023-01-09T17:17:46.646Z,99092.84
2023-01-09T17:20:19.285Z,99106.59
2023-01-09T17:22:47.282Z,99095.69
2023-01-09T17:25:34.516Z,99101.31
2023-01-09T17:28:22.333Z,99105.06
2023-01-09T17:30:50.161Z,99111.00
2023-01-09T17:33:19.213Z,99102.78
2023-01-09T17:35:47.035Z,99105.56
2023-01-09T17:38:16.179Z,99109.78
2023-01-09T17:40:44.625Z,99100.72
2023-01-09T17:43:13.408Z,99105.19
2023-01-09T17:45:42.266Z,99103.25
2023-01-09T17:48:21.834Z,99099.94
2023-01-09T17:50:50.100Z,99108.56
2023-01-09T17:53:20.695Z,99112.09
2023-01-09T17:55:48.555Z,99109.91
2023-01-09T17:58:26.107Z,99113.53
2023-01-09T18:00:53.871Z,99119.22
2023-01-09T18:03:23.279Z,99122.22
2023-01-09T18:05:51.233Z,99107.63
2023-01-09T18:08:19.190Z,99122.38
2023-01-09T18:10:48.561Z,99131.81
2023-01-09T18:13:17.616Z,99121.41
2023-01-09T18:15:46.570Z,99127.69
2023-01-09T18:18:16.176Z,99135.19
2023-01-09T18:20:45.508Z,99134.47
2023-01-09T18:23:14.004Z,99136.34
2023-01-09T18:25:43.110Z,99134.19
2023-01-09T18:28:15.293Z,99123.47
2023-01-09T18:30:47.747Z,99120.81
2023-01-09T18:33:16.194Z,99119.00
2023-01-09T18:35:44.980Z,99133.38
2023-01-09T18:38:13.819Z,99135.56
2023-01-09T18:40:41.942Z,99139.31
2023-01-09T18:43:11.484Z,99140.53
2023-01-09T18:45:39.457Z,99140.53
2023-01-09T18:48:07.935Z,99131.94
2023-01-09T18:50:35.702Z,99144.47
2023-01-09T18:53:03.719Z,99141.75
2023-01-09T18:55:31.383Z,99143.31
2023-01-09T18:57:59.447Z,99148.88
2023-01-09T19:00:27.129Z,99147.31
2023-01-09T19:02:55.081Z,99148.50
2023-01-09T19:05:23.367Z,99156.03
2023-01-09T19:07:51.526Z,99155.91
2023-01-09T19:10:19.392Z,99160.25
2023-01-09T19:12:47.379Z,99163.59
2023-01-09T19:15:15.000Z,99169.59
2023-01-09T19:17:43.034Z,99174.13
2023-01-09T19:20:11.383Z,99176.38
2023-01-09T19:22:39.308Z,99181.91
2023-01-09T19:25:07.296Z,99190.75
2023-01-09T19:27:35.314Z,99191.22
2023-01-09T19:30:03.247Z,99189.44
2023-01-09T19:32:31.335Z,99187.84
2023-01-09T19:34:58.949Z,99186.16
2023-01-09T19:37:26.937Z,99198.03
2023-01-09T19:39:54.596Z,99197.25
2023-01-09T19:42:22.498Z,99187.84
2023-01-09T19:44:50.236Z,99193.69
2023-01-09T19:47:18.183Z,99194.25
2023-01-09T19:49:46.494Z,99208.84
2023-01-09T19:52:14.796Z,99210.03
2023-01-09T19:54:42.531Z,99218.00
2023-01-09T19:57:10.482Z,99214.84
2023-01-09T19:59:40.015Z,99207.72
2023-01-09T20:02:11.029Z,99207.09
2023-01-09T20:04:38.879Z,99210.66
2023-01-09T20:07:07.300Z,99218.84
2023-01-09T20:09:35.052Z,99222.81
2023-01-09T20:12:05.290Z,99219.66
2023-01-09T20:14:36.510Z,99224.91
2023-01-09T20:17:04.766Z,99225.94
2023-01-09T20:19:33.233Z,99229.72
2023-01-09T20:22:01.594Z,99231.91
2023-01-09T20:24:29.518Z,99232.88
2023-01-09T20:26:57.443Z,99230.56
2023-01-09T20:29:25.664Z,99237.34
2023-01-09T20:31:53.679Z,99241.84
2023-01-09T20:34:21.356Z,99254.69
2023-01-09T20:36:49.448Z,99252.13
2023-01-09T20:39:17.184Z,99256.50
2023-01-09T20:41:45.450Z,99264.91
2023-01-09T20:44:14.542Z,99265.03
2023-01-09T20:46:47.477Z,99264.00
2023-01-09T20:49:18.453Z,99257.09
2023-01-09T20:51:49.306Z,99261.72
2023-01-09T20:54:18.426Z,99255.28
2023-01-09T20:56:46.287Z,99264.84
2023-01-09T20:59:23.111Z,99262.44
2023-01-09T21:01:51.474Z,99267.00
2023-01-09T21:04:19.637Z,99274.19
2023-01-09T21:06:49.781Z,99289.06
2023-01-09T21:09:18.439Z,99288.34
2023-01-09T21:11:46.476Z,99302.59
2023-01-09T21:14:14.171Z,99302.38
2023-01-09T21:16:45.512Z,99307.34
2023-01-09T21:19:19.592Z,99302.50
2023-01-09T21:21:47.554Z,99306.50
2023-01-09T21:24:15.316Z,99313.28
2023-01-09T21:26:44.457Z,99320.22
2023-01-09T21:29:13.663Z,99321.88
2023-01-09T21:31:44.153Z,99323.31
2023-01-09T21:34:14.840Z,99334.69
2023-01-09T21:36:45.000Z,99339.31
2023-01-09T21:39:12.808Z,99338.25
2023-01-09T21:41:59.479Z,99346.31
2023-01-09T21:44:45.986Z,99342.91
2023-01-09T21:47:14.162Z,99343.78
2023-01-09T21:49:43.535Z,99345.84
2023-01-09T21:52:13.081Z,99351.63
2023-01-09T21:54:41.799Z,99358.53
2023-01-09T21:57:10.115Z,99360.13
2023-01-09T21:59:37.796Z,99359.72
2023-01-09T22:02:05.747Z,99361.81
2023-01-09T22:04:33.621Z,99376.22
2023-01-09T22:07:01.650Z,99378.16
2023-01-09T22:09:29.458Z,99381.66
2023-01-09T22:11:57.816Z,99391.00
2023-01-09T22:14:25.467Z,99391.34
2023-01-09T22:16:53.528Z,99397.69
2023-01-09T22:19:21.222Z,99401.56
2023-01-09T22:21:49.580Z,99402.94
2023-01-09T22:24:18.815Z,99408.88
2023-01-09T22:26:47.579Z,99394.97
2023-01-09T22:29:16.375Z,99394.97
2023-01-09T22:31:44.581Z,99399.81
2023-01-09T22:34:17.313Z,99394.28
2023-01-09T22:36:46.638Z,99395.53
2023-01-09T22:39:16.245Z,99403.78
2023-01-09T22:41:44.878Z,99406.44
2023-01-09T22:44:13.189Z,99411.97
2023-01-09T22:46:41.113Z,99415.78
2023-01-09T22:49:12.136Z,99415.06
2023-01-09T22:51:40.565Z,99415.22
2023-01-09T22:54:08.384Z,99401.78
2023-01-09T22:56:36.525Z,99403.63
2023-01-09T22:59:04.385Z,99397.41
2023-01-09T23:01:32.371Z,99402.19
2023-01-09T23:04:00.046Z,99399.00
2023-01-09T23:06:27.942Z,99403.72
2023-01-09T23:08:55.665Z,99402.88
2023-01-09T23:11:47.271Z,99416.31
2023-01-09T23:14:15.317Z,99415.91
2023-01-09T23:16:43.474Z,99421.09
2023-01-09T23:19:16.904Z,99420.56
2023-01-09T23:21:45.623Z,99432.56
2023-01-09T23:24:15.521Z,99428.31
2023-01-09T23:26:44.706Z,99431.34
2023-01-09T23:29:13.430Z,99434.63
2023-01-09T23:31:41.746Z,99429.91
2023-01-09T23:34:12.868Z,99437.13
2023-01-09T23:36:41.208Z,99446.34
2023-01-09T23:39:10.151Z,99435.94
2023-01-09T23:41:57.035Z,99434.94
2023-01-09T23:44:24.938Z,99437.19
2023-01-09T23:46:53.433Z,99435.00
2023-01-09T23:49:21.192Z,99445.03
2023-01-09T23:51:49.101Z,99448.41
2023-01-09T23:54:17.749Z,99458.47
2023-01-09T23:56:45.735Z,99462.06
2023-01-09T23:59:14.654Z,99466.56
